createdAt,value
2018-01-24T00:00:16.988Z,33.75
2018-01-24T00:00:50.654Z,33.55
2018-01-24T00:01:24.311Z,32.05
2018-01-24T00:01:58.743Z,32.40
2018-01-24T00:02:32.421Z,30.00
2018-01-24T00:03:06.085Z,38.33
2018-01-24T00:03:39.745Z,30.52
2018-01-24T00:04:13.415Z,30.05
2018-01-24T00:04:47.094Z,31.27
2018-01-24T00:05:20.748Z,26.87
2018-01-24T00:05:55.181Z,33.85
2018-01-24T00:06:28.845Z,30.17
2018-01-24T00:07:03.282Z,31.58
2018-01-24T00:07:36.950Z,36.05
2018-01-24T00:08:11.391Z,28.98
2018-01-24T00:08:45.053Z,27.40
2018-01-24T00:09:19.488Z,30.15
2018-01-24T00:09:53.174Z,35.35
2018-01-24T00:10:26.848Z,34.17
2018-01-24T00:11:00.503Z,30.10
2018-01-24T00:11:34.926Z,27.75
2018-01-24T00:12:09.174Z,33.92
2018-01-24T00:12:42.837Z,27.55
2018-01-24T00:13:16.507Z,28.58
2018-01-24T00:13:50.954Z,29.85
2018-01-24T00:14:24.612Z,27.60
2018-01-24T00:14:59.066Z,29.95
2018-01-24T00:15:32.725Z,28.58
2018-01-24T00:16:07.185Z,31.15
2018-01-24T00:16:40.849Z,25.80
2018-01-24T00:17:14.181Z,31.20
2018-01-24T00:17:48.619Z,26.70
2018-01-24T00:18:22.281Z,30.90
2018-01-24T00:18:55.962Z,23.85
2018-01-24T00:19:30.210Z,27.83
2018-01-24T00:20:03.583Z,31.92
2018-01-24T00:20:37.254Z,27.42
2018-01-24T00:21:11.688Z,27.00
2018-01-24T00:21:45.349Z,34.38
2018-01-24T00:22:19.794Z,25.60
2018-01-24T00:22:53.495Z,28.02
2018-01-24T00:23:27.163Z,29.52
2018-01-24T00:24:00.834Z,28.58
2018-01-24T00:24:34.498Z,29.27
2018-01-24T00:25:08.950Z,27.75
2018-01-24T00:25:42.609Z,33.05
2018-01-24T00:26:17.058Z,23.42
2018-01-24T00:26:50.740Z,33.42
2018-01-24T00:27:24.397Z,32.60
2018-01-24T00:27:58.841Z,32.08
2018-01-24T00:28:32.586Z,29.92
2018-01-24T00:29:06.497Z,32.58
2018-01-24T00:29:40.150Z,27.48
2018-01-24T00:30:13.856Z,34.88
2018-01-24T00:30:48.287Z,26.52
2018-01-24T00:31:21.954Z,27.13
2018-01-24T00:31:56.378Z,27.52
2018-01-24T00:32:30.043Z,27.23
2018-01-24T00:33:04.473Z,26.45
2018-01-24T00:33:38.156Z,23.65
2018-01-24T00:34:12.589Z,27.20
2018-01-24T00:34:46.246Z,27.05
2018-01-24T00:35:20.710Z,27.70
2018-01-24T00:35:54.377Z,26.55
2018-01-24T00:36:28.039Z,26.35
2018-01-24T00:37:02.473Z,26.33
2018-01-24T00:37:36.133Z,30.80
2018-01-24T00:38:10.565Z,25.83
2018-01-24T00:38:43.889Z,24.77
2018-01-24T00:39:17.542Z,28.67
2018-01-24T00:39:51.213Z,28.58
2018-01-24T00:40:24.890Z,22.20
2018-01-24T00:40:59.313Z,26.05
2018-01-24T00:41:32.987Z,31.42
2018-01-24T00:42:07.466Z,23.70
2018-01-24T00:42:41.125Z,30.12
2018-01-24T00:43:14.810Z,23.83
2018-01-24T00:43:48.473Z,29.33
2018-01-24T00:44:22.153Z,25.30
2018-01-24T00:44:56.256Z,23.58
2018-01-24T00:45:30.715Z,26.70
2018-01-24T00:46:04.383Z,25.50
2018-01-24T00:46:38.041Z,22.52
2018-01-24T00:47:12.485Z,23.33
2018-01-24T00:47:46.154Z,22.00
2018-01-24T00:48:19.813Z,25.08
2018-01-24T00:48:53.479Z,25.55
2018-01-24T00:49:27.144Z,29.65
2018-01-24T00:50:00.826Z,22.45
2018-01-24T00:50:34.509Z,24.98
2018-01-24T00:51:08.209Z,24.00
2018-01-24T00:51:41.874Z,26.77
2018-01-24T00:52:15.547Z,25.98
2018-01-24T00:52:49.980Z,25.83
2018-01-24T00:53:23.651Z,24.02
2018-01-24T00:53:58.095Z,23.38
2018-01-24T00:54:31.750Z,24.60
2018-01-24T00:55:06.185Z,19.92
2018-01-24T00:55:39.893Z,25.67
2018-01-24T00:56:13.561Z,27.20
2018-01-24T00:56:47.226Z,21.15
2018-01-24T00:57:20.896Z,21.58
2018-01-24T00:57:54.573Z,27.02
2018-01-24T00:58:29.010Z,26.70
2018-01-24T00:59:02.717Z,22.90
2018-01-24T00:59:36.377Z,32.20
2018-01-24T01:00:10.826Z,24.37
2018-01-24T01:00:44.189Z,25.25
2018-01-24T01:01:17.869Z,27.40
2018-01-24T01:01:52.297Z,31.48
2018-01-24T01:02:25.626Z,25.65
2018-01-24T01:02:59.294Z,25.40
2018-01-24T01:03:32.954Z,25.10
2018-01-24T01:04:06.613Z,20.95
2018-01-24T01:04:41.050Z,22.30
2018-01-24T01:05:14.721Z,23.05
2018-01-24T01:05:49.184Z,23.75
2018-01-24T01:06:22.849Z,24.73
2018-01-24T01:06:56.518Z,23.23
2018-01-24T01:07:30.184Z,18.85
2018-01-24T01:08:04.286Z,22.67
2018-01-24T01:08:38.722Z,23.67
2018-01-24T01:09:12.382Z,18.65
2018-01-24T01:09:46.838Z,21.55
2018-01-24T01:10:20.519Z,20.08
2018-01-24T01:10:54.212Z,20.67
2018-01-24T01:11:27.872Z,23.35
2018-01-24T01:12:01.536Z,23.15
2018-01-24T01:12:35.210Z,23.95
2018-01-24T01:13:08.870Z,22.42
2018-01-24T01:13:42.561Z,20.20
2018-01-24T01:14:16.270Z,21.62
2018-01-24T01:14:49.936Z,21.95
2018-01-24T01:15:23.606Z,20.17
2018-01-24T01:15:57.329Z,24.15
2018-01-24T01:16:30.984Z,26.30
2018-01-24T01:17:04.665Z,22.62
2018-01-24T01:17:39.106Z,23.95
2018-01-24T01:18:12.770Z,22.00
2018-01-24T01:18:46.435Z,23.67
2018-01-24T01:19:20.881Z,18.42
2018-01-24T01:19:54.552Z,22.30
2018-01-24T01:20:28.232Z,18.67
2018-01-24T01:21:02.709Z,20.15
2018-01-24T01:21:36.370Z,19.67
2018-01-24T01:22:10.035Z,20.83
2018-01-24T01:22:43.697Z,17.85
2018-01-24T01:23:17.364Z,24.75
2018-01-24T01:23:51.030Z,19.48
2018-01-24T01:24:24.707Z,19.48
2018-01-24T01:24:58.372Z,23.55
2018-01-24T01:25:32.814Z,18.65
2018-01-24T01:26:06.560Z,20.58
2018-01-24T01:26:40.997Z,18.77
2018-01-24T01:27:14.651Z,24.30
2018-01-24T01:27:48.917Z,20.65
2018-01-24T01:28:22.591Z,18.55
2018-01-24T01:28:56.258Z,21.55
2018-01-24T01:29:29.924Z,23.92
2018-01-24T01:30:04.027Z,20.50
2018-01-24T01:30:38.466Z,18.25
2018-01-24T01:31:12.169Z,18.98
2018-01-24T01:31:45.829Z,22.00
2018-01-24T01:32:19.496Z,23.25
2018-01-24T01:32:53.159Z,16.33
2018-01-24T01:33:26.826Z,19.45
2018-01-24T01:34:00.491Z,21.80
2018-01-24T01:34:34.163Z,21.23
2018-01-24T01:35:08.602Z,16.30
2018-01-24T01:35:42.270Z,20.52
2018-01-24T01:36:15.954Z,19.12
2018-01-24T01:36:50.390Z,17.48
2018-01-24T01:37:24.122Z,17.10
2018-01-24T01:37:57.786Z,18.73
2018-01-24T01:38:31.449Z,18.67
2018-01-24T01:39:04.454Z,20.60
2018-01-24T01:39:38.121Z,18.12
2018-01-24T01:40:11.789Z,16.30
2018-01-24T01:40:45.466Z,16.73
2018-01-24T01:41:19.931Z,18.12
2018-01-24T01:41:53.612Z,17.25
2018-01-24T01:42:27.275Z,18.12
2018-01-24T01:43:00.756Z,19.60
2018-01-24T01:43:34.438Z,20.08
2018-01-24T01:44:08.679Z,20.67
2018-01-24T01:44:42.156Z,18.65
2018-01-24T01:45:15.818Z,19.65
2018-01-24T01:45:49.488Z,16.45
2018-01-24T01:46:23.755Z,18.17
2018-01-24T01:46:57.233Z,15.95
2018-01-24T01:47:30.905Z,18.08
2018-01-24T01:48:04.583Z,19.92
2018-01-24T01:48:38.259Z,22.02
2018-01-24T01:49:11.933Z,15.73
2018-01-24T01:49:46.170Z,17.77
2018-01-24T01:50:19.645Z,19.33
2018-01-24T01:50:53.131Z,21.83
2018-01-24T01:51:26.646Z,16.10
2018-01-24T01:52:00.132Z,19.23
2018-01-24T01:52:33.609Z,20.23
2018-01-24T01:53:07.089Z,15.75
2018-01-24T01:53:40.589Z,16.70
2018-01-24T01:54:14.062Z,16.27
2018-01-24T01:54:47.559Z,17.85
2018-01-24T01:55:21.213Z,15.95
2018-01-24T01:55:54.874Z,16.87
2018-01-24T01:56:28.563Z,17.17
2018-01-24T01:57:02.041Z,15.55
2018-01-24T01:57:35.725Z,16.12
2018-01-24T01:58:09.401Z,16.95
2018-01-24T01:58:43.077Z,14.45
2018-01-24T01:59:16.749Z,17.33
2018-01-24T01:59:50.229Z,17.17
2018-01-24T02:00:23.706Z,17.15
2018-01-24T02:00:57.187Z,20.37
2018-01-24T02:01:31.849Z,17.50
2018-01-24T02:02:05.518Z,18.55
2018-01-24T02:02:39.181Z,18.58
2018-01-24T02:03:12.851Z,17.42
2018-01-24T02:03:47.284Z,16.48
2018-01-24T02:04:20.970Z,17.87
2018-01-24T02:04:54.649Z,20.83
2018-01-24T02:05:29.075Z,23.35
2018-01-24T02:06:02.736Z,20.85
2018-01-24T02:06:37.190Z,16.62
2018-01-24T02:07:10.855Z,18.75
2018-01-24T02:07:44.329Z,19.30
2018-01-24T02:08:18.770Z,19.55
2018-01-24T02:08:52.435Z,17.65
2018-01-24T02:09:26.112Z,19.65
2018-01-24T02:10:00.552Z,19.55
2018-01-24T02:10:34.218Z,19.85
2018-01-24T02:11:07.886Z,21.92
2018-01-24T02:11:42.346Z,23.62
2018-01-24T02:12:16.006Z,20.92
2018-01-24T02:12:49.790Z,22.70
2018-01-24T02:13:24.221Z,26.25
2018-01-24T02:13:57.889Z,21.20
2018-01-24T02:14:31.570Z,16.80
2018-01-24T02:15:06.003Z,23.17
2018-01-24T02:15:39.678Z,22.30
2018-01-24T02:16:13.347Z,19.95
2018-01-24T02:16:47.030Z,28.38
2018-01-24T02:17:20.689Z,18.62
2018-01-24T02:17:54.361Z,24.58
2018-01-24T02:18:28.026Z,24.35
2018-01-24T02:19:02.646Z,21.35
2018-01-24T02:19:36.322Z,23.30
2018-01-24T02:20:10.558Z,22.33
2018-01-24T02:20:44.226Z,20.27
2018-01-24T02:21:17.895Z,17.52
2018-01-24T02:21:52.341Z,23.12
2018-01-24T02:22:26.005Z,21.17
2018-01-24T02:22:59.666Z,21.25
2018-01-24T02:23:33.344Z,22.30
2018-01-24T02:24:06.828Z,20.33
2018-01-24T02:24:40.493Z,24.73
2018-01-24T02:25:13.958Z,24.17
2018-01-24T02:25:47.433Z,22.33
2018-01-24T02:26:21.090Z,24.70
2018-01-24T02:26:55.551Z,21.20
2018-01-24T02:27:29.219Z,20.92
2018-01-24T02:28:02.889Z,21.73
2018-01-24T02:28:37.330Z,21.42
2018-01-24T02:29:10.984Z,22.45
2018-01-24T02:29:45.412Z,28.95
2018-01-24T02:30:19.065Z,22.50
2018-01-24T02:30:52.398Z,24.85
2018-01-24T02:31:26.052Z,25.58
2018-01-24T02:32:00.505Z,21.08
2018-01-24T02:32:34.175Z,25.15
2018-01-24T02:33:07.838Z,28.25
2018-01-24T02:33:42.262Z,26.62
2018-01-24T02:34:15.930Z,24.73
2018-01-24T02:34:50.358Z,25.00
2018-01-24T02:35:24.788Z,23.42
2018-01-24T02:35:58.466Z,23.48
2018-01-24T02:36:32.143Z,25.92
2018-01-24T02:37:06.597Z,27.02
2018-01-24T02:37:40.332Z,25.85
2018-01-24T02:38:25.258Z,26.42
2018-01-24T02:39:10.138Z,24.80
2018-01-24T02:39:44.553Z,23.95
2018-01-24T02:40:19.029Z,22.85
2018-01-24T02:40:52.838Z,28.00
2018-01-24T02:41:27.262Z,25.12
2018-01-24T02:42:01.694Z,22.58
2018-01-24T02:42:35.390Z,22.98
2018-01-24T02:43:09.069Z,21.85
2018-01-24T02:43:42.726Z,23.70
2018-01-24T02:44:17.450Z,23.00
2018-01-24T02:44:51.885Z,23.80
2018-01-24T02:45:25.537Z,24.02
2018-01-24T02:45:59.198Z,22.98
2018-01-24T02:46:32.859Z,27.05
2018-01-24T02:47:06.513Z,25.65
2018-01-24T02:47:40.973Z,26.67
2018-01-24T02:48:14.638Z,23.95
2018-01-24T02:48:48.301Z,30.50
2018-01-24T02:49:22.736Z,26.17
2018-01-24T02:49:56.392Z,26.00
2018-01-24T02:50:30.818Z,23.35
2018-01-24T02:51:04.510Z,27.80
2018-01-24T02:51:38.167Z,26.70
2018-01-24T02:52:12.616Z,25.00
2018-01-24T02:52:46.304Z,25.88
2018-01-24T02:53:19.961Z,26.50
2018-01-24T02:53:54.401Z,24.08
2018-01-24T02:54:28.099Z,23.12
2018-01-24T02:55:01.765Z,21.55
2018-01-24T02:55:35.424Z,27.15
2018-01-24T02:56:09.086Z,24.23
2018-01-24T02:56:42.756Z,23.77
2018-01-24T02:57:16.420Z,24.15
2018-01-24T02:57:50.238Z,28.45
2018-01-24T02:58:23.897Z,24.33
2018-01-24T02:58:58.323Z,23.77
2018-01-24T02:59:32.002Z,24.00
2018-01-24T03:00:04.998Z,26.73
2018-01-24T03:00:38.321Z,23.12
2018-01-24T03:01:11.999Z,21.33
2018-01-24T03:01:45.658Z,22.85
2018-01-24T03:02:18.993Z,25.25
2018-01-24T03:02:53.445Z,27.40
2018-01-24T03:03:27.126Z,23.20
2018-01-24T03:04:00.805Z,25.12
2018-01-24T03:04:34.474Z,24.02
2018-01-24T03:05:08.907Z,23.80
2018-01-24T03:05:42.574Z,25.65
2018-01-24T03:06:17.005Z,23.92
2018-01-24T03:06:50.689Z,24.02
2018-01-24T03:07:24.341Z,24.70
2018-01-24T03:07:59.745Z,23.58
2018-01-24T03:08:33.409Z,27.70
2018-01-24T03:09:07.065Z,25.27
2018-01-24T03:09:41.486Z,24.58
2018-01-24T03:10:15.180Z,22.00
2018-01-24T03:10:48.837Z,22.80
2018-01-24T03:11:22.504Z,22.33
2018-01-24T03:11:56.166Z,20.55
2018-01-24T03:12:29.648Z,21.42
2018-01-24T03:13:03.339Z,26.90
2018-01-24T03:13:36.997Z,27.37
2018-01-24T03:14:11.431Z,30.62
2018-01-24T03:14:45.096Z,26.73
2018-01-24T03:15:19.528Z,26.33
2018-01-24T03:15:53.193Z,20.48
2018-01-24T03:16:27.624Z,21.75
2018-01-24T03:17:01.278Z,26.45
2018-01-24T03:17:35.720Z,20.48
2018-01-24T03:18:09.425Z,20.55
2018-01-24T03:18:42.583Z,20.58
2018-01-24T03:19:16.242Z,25.90
2018-01-24T03:19:49.896Z,23.45
2018-01-24T03:20:23.582Z,20.75
2018-01-24T03:20:56.914Z,20.10
2018-01-24T03:21:31.341Z,23.42
2018-01-24T03:22:05.002Z,24.52
2018-01-24T03:22:39.434Z,19.08
2018-01-24T03:23:13.138Z,22.77
2018-01-24T03:23:46.806Z,22.58
2018-01-24T03:24:21.247Z,23.10
2018-01-24T03:24:54.908Z,24.00
2018-01-24T03:25:28.573Z,21.60
2018-01-24T03:26:03.002Z,19.80
2018-01-24T03:26:36.670Z,24.05
2018-01-24T03:27:10.922Z,23.92
2018-01-24T03:27:44.386Z,28.48
2018-01-24T03:28:18.066Z,26.85
2018-01-24T03:28:51.737Z,21.02
2018-01-24T03:29:26.162Z,23.73
2018-01-24T03:29:59.858Z,20.92
2018-01-24T03:30:33.521Z,25.75
2018-01-24T03:31:07.950Z,18.25
2018-01-24T03:31:41.627Z,19.70
2018-01-24T03:32:16.068Z,22.17
2018-01-24T03:32:49.736Z,21.17
2018-01-24T03:33:23.417Z,20.20
2018-01-24T03:33:57.882Z,17.25
2018-01-24T03:34:31.542Z,21.37
2018-01-24T03:35:05.201Z,21.65
2018-01-24T03:35:39.679Z,19.85
2018-01-24T03:36:13.027Z,22.33
2018-01-24T03:36:46.709Z,21.17
2018-01-24T03:37:20.381Z,18.52
2018-01-24T03:37:54.819Z,24.33
2018-01-24T03:38:28.502Z,26.40
2018-01-24T03:39:02.177Z,21.50
2018-01-24T03:39:35.839Z,23.45
2018-01-24T03:40:10.273Z,21.58
2018-01-24T03:40:43.942Z,22.70
2018-01-24T03:41:18.382Z,21.02
2018-01-24T03:41:52.054Z,21.58
2018-01-24T03:42:25.724Z,18.17
2018-01-24T03:43:00.149Z,24.42
2018-01-24T03:43:33.840Z,20.33
2018-01-24T03:44:07.506Z,18.67
2018-01-24T03:44:41.934Z,24.65
2018-01-24T03:45:15.595Z,23.83
2018-01-24T03:45:49.253Z,28.08
2018-01-24T03:46:22.908Z,22.67
2018-01-24T03:46:56.239Z,22.33
2018-01-24T03:47:30.673Z,20.58
2018-01-24T03:48:05.098Z,22.83
2018-01-24T03:48:38.789Z,18.20
2018-01-24T03:49:12.461Z,22.62
2018-01-24T03:49:46.894Z,25.88
2018-01-24T03:50:20.592Z,26.80
2018-01-24T03:50:54.253Z,21.52
2018-01-24T03:51:28.698Z,22.65
2018-01-24T03:52:02.353Z,21.52
2018-01-24T03:52:36.036Z,23.33
2018-01-24T03:53:10.458Z,24.12
2018-01-24T03:53:44.146Z,25.60
2018-01-24T03:54:17.826Z,20.55
2018-01-24T03:54:51.495Z,20.42
2018-01-24T03:55:25.164Z,23.52
2018-01-24T03:55:58.830Z,21.92
2018-01-24T03:56:32.494Z,18.83
2018-01-24T03:57:06.161Z,20.90
2018-01-24T03:57:40.590Z,17.50
2018-01-24T03:58:14.268Z,20.90
2018-01-24T03:58:48.729Z,19.40
2018-01-24T03:59:22.433Z,19.42
2018-01-24T03:59:56.114Z,21.12
2018-01-24T04:00:29.783Z,20.00
2018-01-24T04:01:03.457Z,20.15
2018-01-24T04:01:37.128Z,17.92
2018-01-24T04:02:10.805Z,24.08
2018-01-24T04:02:45.233Z,21.65
2018-01-24T04:03:18.914Z,18.85
2018-01-24T04:03:52.609Z,19.05
2018-01-24T04:04:26.280Z,19.55
2018-01-24T04:05:00.705Z,21.12
2018-01-24T04:05:34.389Z,21.90
2018-01-24T04:06:08.049Z,19.95
2018-01-24T04:06:41.769Z,17.45
2018-01-24T04:07:16.186Z,25.30
2018-01-24T04:07:49.851Z,18.77
2018-01-24T04:08:24.277Z,19.27
2018-01-24T04:08:57.967Z,21.45
2018-01-24T04:09:31.639Z,17.35
2018-01-24T04:10:06.119Z,16.42
2018-01-24T04:10:39.926Z,17.77
2018-01-24T04:11:13.597Z,18.23
2018-01-24T04:11:47.262Z,15.70
2018-01-24T04:12:21.034Z,18.40
2018-01-24T04:12:54.705Z,17.83
2018-01-24T04:13:29.150Z,19.48
2018-01-24T04:14:02.858Z,24.83
2018-01-24T04:14:36.521Z,17.80
2018-01-24T04:15:10.189Z,17.75
2018-01-24T04:15:44.626Z,16.87
2018-01-24T04:16:18.290Z,17.10
2018-01-24T04:16:51.956Z,21.25
2018-01-24T04:17:26.386Z,16.05
2018-01-24T04:18:00.057Z,18.48
2018-01-24T04:18:34.483Z,19.58
2018-01-24T04:19:08.940Z,24.10
2018-01-24T04:19:42.601Z,17.10
2018-01-24T04:20:16.266Z,18.10
2018-01-24T04:20:50.708Z,18.17
2018-01-24T04:21:24.370Z,23.40
2018-01-24T04:22:38.129Z,21.98
2018-01-24T04:23:11.794Z,22.02
2018-01-24T04:23:45.470Z,20.88
2018-01-24T04:24:19.940Z,19.58
2018-01-24T04:24:53.605Z,17.12
2018-01-24T04:25:27.276Z,19.08
2018-01-24T04:26:00.942Z,18.95
2018-01-24T04:26:35.390Z,16.75
2018-01-24T04:27:09.135Z,21.50
2018-01-24T04:27:43.604Z,15.48
2018-01-24T04:28:17.279Z,18.83
2018-01-24T04:28:50.954Z,17.42
2018-01-24T04:29:24.648Z,20.67
2018-01-24T04:29:58.328Z,16.15
2018-01-24T04:30:31.985Z,18.30
2018-01-24T04:31:06.414Z,17.67
2018-01-24T04:31:40.082Z,16.52
2018-01-24T04:32:14.182Z,17.37
2018-01-24T04:32:48.665Z,19.23
2018-01-24T04:33:22.330Z,19.83
2018-01-24T04:33:56.125Z,17.90
2018-01-24T04:34:29.834Z,23.05
2018-01-24T04:35:03.515Z,18.50
2018-01-24T04:35:37.183Z,16.00
2018-01-24T04:36:10.843Z,15.93
2018-01-24T04:36:45.286Z,17.20
2018-01-24T04:37:18.950Z,21.45
2018-01-24T04:37:52.619Z,18.45
2018-01-24T04:38:27.070Z,17.10
2018-01-24T04:39:00.734Z,19.25
2018-01-24T04:39:34.419Z,19.80
2018-01-24T04:40:07.765Z,20.85
2018-01-24T04:40:41.437Z,21.92
2018-01-24T04:41:15.106Z,16.60
2018-01-24T04:41:48.766Z,18.67
2018-01-24T04:42:23.201Z,18.48
2018-01-24T04:42:56.867Z,18.30
2018-01-24T04:43:31.316Z,16.90
2018-01-24T04:44:04.986Z,19.52
2018-01-24T04:44:38.497Z,17.42
2018-01-24T04:45:12.185Z,20.52
2018-01-24T04:45:45.678Z,19.55
2018-01-24T04:46:19.347Z,19.75
2018-01-24T04:46:53.021Z,17.12
2018-01-24T04:47:26.679Z,18.58
2018-01-24T04:48:01.108Z,18.08
2018-01-24T04:48:34.773Z,16.35
2018-01-24T04:49:09.204Z,19.23
2018-01-24T04:49:42.905Z,14.52
2018-01-24T04:50:16.389Z,19.25
2018-01-24T04:50:49.865Z,17.40
2018-01-24T04:51:23.340Z,18.48
2018-01-24T04:51:57.757Z,20.17
2018-01-24T04:52:31.422Z,21.42
2018-01-24T04:53:05.858Z,18.90
2018-01-24T04:53:39.522Z,16.62
2018-01-24T04:54:13.954Z,19.62
2018-01-24T04:54:47.656Z,18.52
2018-01-24T04:55:21.319Z,19.83
2018-01-24T04:55:54.985Z,16.00
2018-01-24T04:56:28.469Z,17.20
2018-01-24T04:57:01.965Z,16.10
2018-01-24T04:57:36.214Z,19.52
2018-01-24T04:58:09.750Z,15.65
2018-01-24T04:58:44.186Z,18.10
2018-01-24T04:59:17.663Z,17.98
2018-01-24T04:59:51.174Z,17.35
2018-01-24T05:00:24.650Z,18.45
2018-01-24T05:00:57.785Z,15.75
2018-01-24T05:01:30.926Z,17.55
2018-01-24T05:02:04.408Z,15.93
2018-01-24T05:02:37.893Z,15.32
2018-01-24T05:03:11.558Z,15.07
2018-01-24T05:03:45.221Z,14.98
2018-01-24T05:04:19.462Z,15.75
2018-01-24T05:04:52.965Z,16.83
2018-01-24T05:05:26.461Z,24.27
2018-01-24T05:06:00.126Z,17.15
2018-01-24T05:06:33.798Z,14.55
2018-01-24T05:07:07.294Z,16.52
2018-01-24T05:07:40.776Z,16.00
2018-01-24T05:08:14.257Z,13.98
2018-01-24T05:08:47.743Z,19.27
2018-01-24T05:09:21.239Z,18.00
2018-01-24T05:09:54.754Z,15.95
2018-01-24T05:10:28.234Z,16.33
2018-01-24T05:11:01.710Z,17.02
2018-01-24T05:11:35.206Z,17.30
2018-01-24T05:12:08.681Z,16.10
2018-01-24T05:12:42.171Z,16.85
2018-01-24T05:13:15.647Z,16.77
2018-01-24T05:13:49.125Z,16.48
2018-01-24T05:14:22.609Z,18.70
2018-01-24T05:14:56.120Z,18.98
2018-01-24T05:15:29.596Z,15.73
2018-01-24T05:16:03.075Z,16.02
2018-01-24T05:16:36.560Z,15.40
2018-01-24T05:17:10.051Z,13.60
2018-01-24T05:17:43.540Z,17.83
2018-01-24T05:18:17.218Z,16.60
2018-01-24T05:18:50.902Z,17.65
2018-01-24T05:19:24.386Z,17.55
2018-01-24T05:19:57.881Z,17.90
2018-01-24T05:20:41.259Z,14.87
2018-01-24T05:21:16.148Z,18.10
2018-01-24T05:21:50.426Z,15.35
2018-01-24T05:22:23.944Z,15.77
2018-01-24T05:22:58.214Z,16.95
2018-01-24T05:23:31.890Z,16.37
2018-01-24T05:24:05.557Z,15.13
2018-01-24T05:24:39.326Z,19.52
2018-01-24T05:25:13.786Z,13.02
2018-01-24T05:25:47.464Z,14.18
2018-01-24T05:26:21.142Z,14.75
2018-01-24T05:26:54.821Z,16.95
2018-01-24T05:27:28.495Z,16.17
2018-01-24T05:28:02.930Z,15.25
2018-01-24T05:28:36.591Z,16.90
2018-01-24T05:29:11.022Z,15.05
2018-01-24T05:29:44.698Z,14.43
2018-01-24T05:30:18.415Z,16.62
2018-01-24T05:30:52.077Z,16.75
2018-01-24T05:31:26.505Z,14.02
2018-01-24T05:32:00.176Z,16.20
2018-01-24T05:32:33.834Z,14.60
2018-01-24T05:33:07.517Z,15.77
2018-01-24T05:33:41.970Z,15.73
2018-01-24T05:34:15.633Z,15.23
2018-01-24T05:34:50.067Z,14.68
2018-01-24T05:35:23.752Z,14.93
2018-01-24T05:35:57.435Z,15.02
2018-01-24T05:36:31.097Z,17.17
2018-01-24T05:37:04.762Z,16.87
2018-01-24T05:37:38.492Z,14.80
2018-01-24T05:38:12.591Z,15.30
2018-01-24T05:38:47.027Z,15.25
2018-01-24T05:39:20.708Z,14.50
2018-01-24T05:39:54.377Z,16.65
2018-01-24T05:40:28.841Z,14.80
2018-01-24T05:41:02.525Z,19.62
2018-01-24T05:41:36.191Z,15.43
2018-01-24T05:42:09.862Z,18.30
2018-01-24T05:42:43.344Z,18.00
2018-01-24T05:43:17.785Z,14.87
2018-01-24T05:43:51.450Z,15.80
2018-01-24T05:44:25.126Z,18.70
2018-01-24T05:44:59.555Z,16.00
2018-01-24T05:45:33.258Z,16.75
2018-01-24T05:46:06.926Z,19.60
2018-01-24T05:46:40.589Z,15.95
2018-01-24T05:47:14.250Z,16.87
2018-01-24T05:47:47.928Z,18.60
2018-01-24T05:48:21.607Z,19.37
2018-01-24T05:48:55.275Z,18.45
2018-01-24T05:49:28.952Z,14.57
2018-01-24T05:50:03.050Z,16.17
2018-01-24T05:50:37.506Z,17.65
2018-01-24T05:51:11.174Z,16.30
2018-01-24T05:51:44.653Z,15.60
2018-01-24T05:52:18.334Z,15.75
2018-01-24T05:52:51.999Z,15.57
2018-01-24T05:53:25.666Z,15.85
2018-01-24T05:53:59.338Z,20.02
2018-01-24T05:54:33.094Z,19.98
2018-01-24T05:55:06.789Z,19.48
2018-01-24T05:55:40.488Z,15.63
2018-01-24T05:56:14.162Z,16.90
2018-01-24T05:56:48.598Z,15.93
2018-01-24T05:57:22.261Z,17.02
2018-01-24T05:57:55.918Z,17.40
2018-01-24T05:58:29.581Z,15.63
2018-01-24T05:59:03.314Z,15.70
2018-01-24T05:59:37.741Z,16.40
2018-01-24T06:00:11.233Z,14.65
2018-01-24T06:00:44.921Z,17.10
2018-01-24T06:01:18.583Z,15.13
2018-01-24T06:01:53.026Z,13.52
2018-01-24T06:02:26.691Z,11.60
2018-01-24T06:03:01.129Z,23.98
2018-01-24T06:03:34.791Z,15.70
2018-01-24T06:04:09.222Z,16.00
2018-01-24T06:04:42.886Z,14.30
2018-01-24T06:05:16.987Z,14.38
2018-01-24T06:05:50.673Z,15.35
2018-01-24T06:06:25.228Z,14.90
2018-01-24T06:06:58.897Z,14.48
2018-01-24T06:07:32.563Z,15.00
2018-01-24T06:08:06.994Z,14.30
2018-01-24T06:08:40.654Z,17.10
2018-01-24T06:09:15.078Z,12.77
2018-01-24T06:09:48.750Z,16.15
2018-01-24T06:10:23.196Z,15.70
2018-01-24T06:10:56.882Z,13.68
2018-01-24T06:11:30.547Z,15.18
2018-01-24T06:12:04.209Z,14.82
2018-01-24T06:12:38.654Z,16.50
2018-01-24T06:13:12.310Z,13.93
2018-01-24T06:13:46.730Z,17.35
2018-01-24T06:14:21.163Z,15.73
2018-01-24T06:14:54.833Z,15.90
2018-01-24T06:15:29.259Z,14.77
2018-01-24T06:16:02.970Z,15.15
2018-01-24T06:16:36.646Z,15.50
2018-01-24T06:17:10.310Z,16.75
2018-01-24T06:17:43.988Z,13.73
2018-01-24T06:18:18.429Z,15.05
2018-01-24T06:18:52.090Z,16.60
2018-01-24T06:19:26.518Z,15.18
2018-01-24T06:20:00.184Z,14.73
2018-01-24T06:20:34.618Z,16.87
2018-01-24T06:21:08.317Z,15.73
2018-01-24T06:21:41.997Z,16.95
2018-01-24T06:22:15.659Z,13.90
2018-01-24T06:22:50.081Z,14.50
2018-01-24T06:23:23.743Z,16.08
2018-01-24T06:23:57.421Z,15.68
2018-01-24T06:24:32.603Z,14.77
2018-01-24T06:25:06.279Z,18.20
2018-01-24T06:25:39.953Z,14.18
2018-01-24T06:26:14.419Z,14.50
2018-01-24T06:26:48.104Z,14.07
2018-01-24T06:27:21.781Z,15.80
2018-01-24T06:27:55.455Z,15.77
2018-01-24T06:28:29.126Z,17.62
2018-01-24T06:29:03.551Z,14.25
2018-01-24T06:29:37.216Z,18.52
2018-01-24T06:30:11.658Z,12.90
2018-01-24T06:30:45.319Z,15.43
2018-01-24T06:31:19.011Z,13.75
2018-01-24T06:31:53.470Z,16.23
2018-01-24T06:32:27.145Z,13.90
2018-01-24T06:33:00.811Z,18.45
2018-01-24T06:33:34.486Z,14.75
2018-01-24T06:34:07.821Z,16.45
2018-01-24T06:34:41.492Z,16.23
2018-01-24T06:35:15.154Z,12.23
2018-01-24T06:35:48.643Z,15.00
2018-01-24T06:36:22.336Z,16.27
2018-01-24T06:36:56.019Z,15.88
2018-01-24T06:37:29.693Z,14.63
2018-01-24T06:38:04.125Z,15.10
2018-01-24T06:38:37.604Z,13.10
2018-01-24T06:39:11.269Z,12.80
2018-01-24T06:39:45.697Z,17.15
2018-01-24T06:40:19.360Z,16.60
2018-01-24T06:40:53.802Z,16.87
2018-01-24T06:41:27.492Z,14.13
2018-01-24T06:42:01.256Z,14.90
2018-01-24T06:42:35.689Z,14.60
2018-01-24T06:43:09.346Z,14.20
2018-01-24T06:43:43.782Z,12.65
2018-01-24T06:44:17.446Z,15.70
2018-01-24T06:44:51.874Z,14.77
2018-01-24T06:45:25.550Z,16.77
2018-01-24T06:45:59.791Z,14.13
2018-01-24T06:46:33.518Z,15.00
2018-01-24T06:47:07.201Z,17.10
2018-01-24T06:47:40.865Z,14.48
2018-01-24T06:48:14.211Z,15.82
2018-01-24T06:48:48.645Z,13.62
2018-01-24T06:49:22.316Z,17.67
2018-01-24T06:49:55.984Z,14.95
2018-01-24T06:50:30.419Z,13.45
2018-01-24T06:51:04.097Z,15.27
2018-01-24T06:51:37.792Z,13.35
2018-01-24T06:52:11.478Z,16.45
2018-01-24T06:52:45.137Z,18.87
2018-01-24T06:53:18.818Z,14.40
2018-01-24T06:53:52.490Z,17.17
2018-01-24T06:54:26.166Z,13.55
2018-01-24T06:55:00.038Z,16.50
2018-01-24T06:55:33.720Z,18.37
2018-01-24T06:56:07.380Z,14.57
2018-01-24T06:56:41.069Z,17.48
2018-01-24T06:57:14.736Z,18.85
2018-01-24T06:57:48.404Z,15.85
2018-01-24T06:58:22.074Z,14.93
2018-01-24T06:58:55.761Z,17.77
2018-01-24T06:59:29.449Z,17.95
2018-01-24T07:00:03.138Z,15.38
2018-01-24T07:00:36.803Z,15.82
2018-01-24T07:01:10.155Z,17.42
2018-01-24T07:01:43.865Z,15.32
2018-01-24T07:02:17.573Z,16.17
2018-01-24T07:02:52.006Z,15.05
2018-01-24T07:03:25.337Z,15.65
2018-01-24T07:03:58.490Z,14.25
2018-01-24T07:04:32.157Z,18.73
2018-01-24T07:05:05.817Z,14.87
2018-01-24T07:05:40.255Z,16.92
2018-01-24T07:06:13.913Z,16.00
2018-01-24T07:06:48.373Z,15.68
2018-01-24T07:07:22.082Z,18.98
2018-01-24T07:07:55.751Z,15.52
2018-01-24T07:08:29.433Z,16.48
2018-01-24T07:09:02.435Z,16.42
2018-01-24T07:09:36.111Z,14.27
2018-01-24T07:10:09.777Z,17.17
2018-01-24T07:10:43.445Z,16.85
2018-01-24T07:11:17.919Z,13.48
2018-01-24T07:11:50.973Z,12.10
2018-01-24T07:12:35.919Z,17.42
2018-01-24T07:13:20.797Z,13.98
2018-01-24T07:14:05.725Z,16.23
2018-01-24T07:14:42.347Z,14.93
2018-01-24T07:15:16.792Z,15.63
2018-01-24T07:15:50.464Z,13.57
2018-01-24T07:16:24.135Z,14.93
2018-01-24T07:16:57.830Z,17.40
2018-01-24T07:17:31.498Z,14.57